Zeeland, Michigan
Current Conditions -  °F | °C
As of 10:53 PM on Friday 31 Oct 2014 (Local Time) from KBIV Reporting Station
Overcast Overcast  
Wind Chill: 27°   Ceiling: 4100
Heat Index: 35°   Visibility: 10mi
Dew Point: 23°   Wind: 10mph
Humidity: 61%   Direction: 10°N
Pressure: 30.3"   Gusts: 17mph
Location:  42.81°N, 86.01°W
Report Text: KBIV 010253Z AUTO 01009G15KT 10SM OVC041 02/M05 A3030 RMK AO2 SLP267 T00171050 51014
Loading
Personal Weather Stations






























Interactive Weather Map
Tropical Storm Tracking
New forecast layout! Learn more

10-Day Weather Forecast

Advertisements
Track Severe Weather on mobile